Time;durP1;ratioP1;P1;durP2;ratioP2;P2;SDS_P1;SDS_P2;PMS_P1;PMS_P2;Temp;Humidity;BMP_temperature;BMP_pressure;BME280_temperature;BME280_humidity;BME280_pressure;Samples;Min_cycle;Max_cycle;Signal;HPM_P1;HPM_P2
2023/05/16 00:00:17;;;;;;;;;;;;;;;27.92;29.05;100671.66;5077885;28;1060;-26
2023/05/16 00:02:42;;;;;;;;;;;;;;;27.58;29.95;100664.97;5078146;28;1040;-26
2023/05/16 00:05:09;;;;;;;;;;;;;;;27.29;30.40;100645.06;5077569;28;1130;-24
2023/05/16 00:07:35;;;;;;;;;;;;;;;27.95;29.61;100643.41;5077136;28;1043;-25
2023/05/16 00:10:01;;;;;;;;;;;;;;;27.64;29.28;100648.03;5077813;28;1263;-26
2023/05/16 00:12:27;;;;;;;;;;;;;;;27.23;30.56;100643.94;5077472;28;1128;-26
2023/05/16 00:14:52;;;;;;;;;;;;;;;27.20;30.94;100639.75;5077307;28;1119;-25
2023/05/16 00:17:19;;;;;;;;;;;;;;;28.14;29.35;100647.34;5077367;28;1897;-23
2023/05/16 00:19:46;;;;;;;;;;;;;;;27.72;29.54;100645.25;5059327;28;1203;-29
2023/05/16 00:22:11;;;;;;;;;;;;;;;27.22;30.71;100635.03;5077143;28;1155;-27
2023/05/16 00:24:37;;;;;;;;;;;;;;;27.73;29.72;100638.81;5077700;28;1024;-26
2023/05/16 00:27:03;;;;;;;;;;;;;;;28.18;29.15;100642.38;5076865;28;1068;-24
2023/05/16 00:29:29;;;;;;;;;;;;;;;27.68;29.74;100643.06;5077079;28;1136;-23
2023/05/16 00:31:57;;;;;;;;;;;;;;;27.48;30.24;100641.78;5077782;28;1016;-24
2023/05/16 00:34:22;;;;;;;;;;;;;;;27.91;29.60;100648.34;5059153;28;1102;-24
2023/05/16 00:36:50;;;;;;;;;;;;;;;28.26;29.14;100654.94;5076993;28;1910;-24
2023/05/16 00:39:16;;;;;;;;;;;;;;;28.69;28.36;100651.41;5077129;28;1021;-24
2023/05/16 00:41:42;;;;;;;;;;;;;;;28.53;27.82;100650.63;5077137;28;1083;-24
2023/05/16 00:44:07;;;;;;;;;;;;;;;28.02;29.27;100646.19;5077150;28;1139;-24
2023/05/16 00:46:33;;;;;;;;;;;;;;;28.02;29.01;100652.44;5076966;28;1179;-25
2023/05/16 00:48:59;;;;;;;;;;;;;;;27.73;29.36;100646.91;5059310;28;1190;-28
2023/05/16 00:51:24;;;;;;;;;;;;;;;27.80;29.74;100643.44;5058841;28;1072;-25
2023/05/16 00:53:50;;;;;;;;;;;;;;;27.90;29.46;100645.84;5075366;28;1113;-23
2023/05/16 00:56:17;;;;;;;;;;;;;;;27.94;29.17;100642.56;5076655;28;1977;-24
2023/05/16 00:58:42;;;;;;;;;;;;;;;27.48;29.98;100647.19;5058241;28;1060;-28
2023/05/16 01:01:08;;;;;;;;;;;;;;;27.21;30.44;100644.13;5059130;28;1201;-24
2023/05/16 01:03:34;;;;;;;;;;;;;;;28.03;29.40;100637.06;5059033;28;1072;-26
2023/05/16 01:05:59;;;;;;;;;;;;;;;27.91;28.78;100637.53;5058888;28;1122;-26
2023/05/16 01:08:25;;;;;;;;;;;;;;;27.38;30.60;100647.50;5076552;28;1131;-24
2023/05/16 01:10:54;;;;;;;;;;;;;;;27.26;30.61;100635.47;5076358;28;1035;-24
2023/05/16 01:13:39;;;;;;;;;;;;;;;28.06;29.26;100639.38;5076683;28;1059;-26
2023/05/16 01:16:12;;;;;;;;;;;;;;;27.79;29.38;100642.63;5076044;28;1963;-25
2023/05/16 01:18:51;;;;;;;;;;;;;;;27.17;30.58;100640.16;5058788;28;1124;-26
2023/05/16 01:21:27;;;;;;;;;;;;;;;27.70;30.01;100630.22;5071953;28;1202;-27
2023/05/16 01:24:00;;;;;;;;;;;;;;;28.31;28.95;100628.97;5058548;28;892;-23
2023/05/16 01:26:26;;;;;;;;;;;;;;;27.65;29.78;100622.66;5046664;28;1077;-24
2023/05/16 01:28:52;;;;;;;;;;;;;;;27.35;30.41;100628.97;5058269;28;1032;-23
2023/05/16 01:31:18;;;;;;;;;;;;;;;27.91;29.65;100639.41;5076559;28;1027;-25
2023/05/16 01:33:43;;;;;;;;;;;;;;;28.06;28.92;100642.88;5058303;28;1009;-24
2023/05/16 01:36:09;;;;;;;;;;;;;;;27.80;29.69;100632.63;5076148;28;1902;-23
2023/05/16 01:38:51;;;;;;;;;;;;;;;27.31;30.72;100635.75;5076727;28;1069;-24
2023/05/16 01:41:17;;;;;;;;;;;;;;;28.01;29.48;100633.69;5076650;28;988;-24
2023/05/16 01:43:44;;;;;;;;;;;;;;;27.78;28.98;100634.72;5076404;28;1045;-23
2023/05/16 01:46:19;;;;;;;;;;;;;;;27.57;30.00;100633.59;5041473;28;1116;-25
2023/05/16 01:48:52;;;;;;;;;;;;;;;27.33;30.59;100640.97;5076230;28;1143;-26
2023/05/16 01:51:20;;;;;;;;;;;;;;;28.17;29.21;100636.16;5041160;28;1041;-25
2023/05/16 01:53:46;;;;;;;;;;;;;;;27.79;29.58;100641.78;5058425;28;1159;-24
2023/05/16 01:56:13;;;;;;;;;;;;;;;27.39;30.27;100642.94;5041896;28;1906;-24
2023/05/16 01:58:38;;;;;;;;;;;;;;;27.78;29.69;100637.41;5058028;28;1348;-24
2023/05/16 02:01:04;;;;;;;;;;;;;;;27.97;28.86;100636.78;5058118;28;1195;-26
2023/05/16 02:03:30;;;;;;;;;;;;;;;27.59;29.67;100637.75;5076198;28;1068;-26
2023/05/16 02:05:56;;;;;;;;;;;;;;;27.25;30.62;100637.34;5079613;28;1144;-25
2023/05/16 02:08:22;;;;;;;;;;;;;;;28.01;29.36;100628.28;5080188;28;1219;-26
2023/05/16 02:10:48;;;;;;;;;;;;;;;27.84;28.97;100623.94;5079446;28;1071;-24
2023/05/16 02:13:14;;;;;;;;;;;;;;;27.42;30.11;100618.25;5080079;28;1088;-26
2023/05/16 02:15:40;;;;;;;;;;;;;;;27.39;30.53;100622.13;5079318;28;1906;-25
2023/05/16 02:18:06;;;;;;;;;;;;;;;28.29;28.59;100619.41;5061876;28;1106;-24
2023/05/16 02:20:32;;;;;;;;;;;;;;;27.89;29.59;100622.53;5079572;28;1107;-24
2023/05/16 02:23:00;;;;;;;;;;;;;;;27.28;30.50;100622.63;5061482;28;1278;-23
2023/05/16 02:25:25;;;;;;;;;;;;;;;27.78;29.76;100626.59;5080316;28;1259;-25
2023/05/16 02:27:51;;;;;;;;;;;;;;;28.14;28.59;100624.88;5079509;28;1124;-26
2023/05/16 02:30:16;;;;;;;;;;;;;;;27.85;29.47;100614.81;5079259;28;1115;-25
2023/05/16 02:32:43;;;;;;;;;;;;;;;27.38;30.21;100611.53;5079150;28;1104;-25
2023/05/16 02:35:09;;;;;;;;;;;;;;;27.92;29.48;100623.00;5079440;28;1135;-25
2023/05/16 02:37:35;;;;;;;;;;;;;;;28.24;28.57;100622.69;5079698;28;1910;-24
2023/05/16 02:40:01;;;;;;;;;;;;;;;27.75;29.62;100620.53;5079576;28;1027;-25
2023/05/16 02:42:27;;;;;;;;;;;;;;;27.24;30.57;100613.22;5079127;28;1052;-23
2023/05/16 02:44:52;;;;;;;;;;;;;;;27.87;29.42;100607.38;5079414;28;1108;-23
2023/05/16 02:47:18;;;;;;;;;;;;;;;27.97;28.92;100612.47;5079167;28;1128;-25
2023/05/16 02:49:43;;;;;;;;;;;;;;;27.63;29.58;100613.91;5061165;28;1244;-24
2023/05/16 02:52:09;;;;;;;;;;;;;;;27.51;29.82;100621.66;5061129;28;1076;-26
2023/05/16 02:54:35;;;;;;;;;;;;;;;28.07;28.84;100625.66;5079295;28;992;-26
2023/05/16 02:57:00;;;;;;;;;;;;;;;27.99;28.69;100626.59;5078632;28;1969;-27
2023/05/16 02:59:26;;;;;;;;;;;;;;;27.65;29.56;100611.84;5079119;28;1072;-23
2023/05/16 03:01:51;;;;;;;;;;;;;;;27.31;30.44;100614.13;5060955;28;1554;-25
2023/05/16 03:04:17;;;;;;;;;;;;;;;28.01;29.30;100612.88;5079131;28;1000;-27
2023/05/16 03:06:42;;;;;;;;;;;;;;;27.99;28.53;100626.59;5079072;28;1162;-25
2023/05/16 03:09:08;;;;;;;;;;;;;;;27.56;29.93;100623.81;5079020;28;1008;-23
2023/05/16 03:11:34;;;;;;;;;;;;;;;27.30;30.15;100617.03;5061062;28;1156;-26
2023/05/16 03:14:00;;;;;;;;;;;;;;;27.97;29.26;100615.16;5090400;28;1136;-27
2023/05/16 03:16:25;;;;;;;;;;;;;;;27.56;29.31;100621.09;5079496;28;1909;-23
2023/05/16 03:18:51;;;;;;;;;;;;;;;26.58;31.51;100607.47;5078529;28;1140;-28
2023/05/16 03:21:16;;;;;;;;;;;;;;;25.86;33.89;100606.81;5078736;28;1083;-29
2023/05/16 03:23:43;;;;;;;;;;;;;;;24.87;36.28;100603.44;5077723;28;1088;-27
2023/05/16 03:26:09;;;;;;;;;;;;;;;24.80;36.44;100592.53;5078457;28;1120;-24
2023/05/16 03:28:35;;;;;;;;;;;;;;;24.78;36.84;100592.69;5078370;28;972;-26
2023/05/16 03:31:01;;;;;;;;;;;;;;;24.74;36.96;100596.72;5078243;28;1115;-29
2023/05/16 03:33:27;;;;;;;;;;;;;;;24.62;37.25;100598.09;5077929;28;1191;-27
2023/05/16 03:35:52;;;;;;;;;;;;;;;24.42;37.86;100595.78;5060046;28;1961;-31
2023/05/16 03:38:18;;;;;;;;;;;;;;;24.39;37.85;100596.94;5061156;28;1124;-24
2023/05/16 03:40:43;;;;;;;;;;;;;;;24.40;37.96;100595.94;5059982;28;1098;-28
2023/05/16 03:43:09;;;;;;;;;;;;;;;24.27;38.21;100609.03;5077563;28;1004;-25
2023/05/16 03:45:35;;;;;;;;;;;;;;;24.63;36.72;100615.91;5060333;28;1048;-26
2023/05/16 03:48:00;;;;;;;;;;;;;;;24.72;36.89;100609.53;5059496;28;1111;-26
2023/05/16 03:50:26;;;;;;;;;;;;;;;24.77;36.74;100620.63;5078073;28;1122;-27
2023/05/16 03:52:54;;;;;;;;;;;;;;;25.06;35.75;100629.16;5071598;28;1420;-27
2023/05/16 03:55:20;;;;;;;;;;;;;;;25.08;35.86;100635.22;5076221;28;1976;-27
2023/05/16 03:57:46;;;;;;;;;;;;;;;25.37;35.95;100635.63;5077236;28;948;-27
2023/05/16 04:00:12;;;;;;;;;;;;;;;25.77;35.15;100649.13;5077366;28;1140;-27
2023/05/16 04:02:39;;;;;;;;;;;;;;;25.68;35.74;100661.78;5077704;28;1060;-29
2023/05/16 04:05:09;;;;;;;;;;;;;;;24.90;35.18;100663.19;5083301;28;1226;-24
2023/05/16 04:07:34;;;;;;;;;;;;;;;25.05;35.46;100665.16;5093290;28;976;-24
2023/05/16 04:10:00;;;;;;;;;;;;;;;24.96;36.37;100671.59;5091705;28;1134;-27
2023/05/16 04:12:26;;;;;;;;;;;;;;;24.93;36.56;100664.66;5089871;28;896;-27
2023/05/16 04:14:51;;;;;;;;;;;;;;;24.89;36.76;100661.44;5097088;28;1229;-27
2023/05/16 04:17:17;;;;;;;;;;;;;;;25.09;36.50;100662.97;5088093;28;1914;-28
2023/05/16 04:19:42;;;;;;;;;;;;;;;24.85;36.95;100656.59;5077014;28;1157;-26
2023/05/16 04:22:08;;;;;;;;;;;;;;;24.46;37.87;100651.72;5097565;28;1078;-25
2023/05/16 04:24:33;;;;;;;;;;;;;;;24.51;37.79;100648.53;5078865;28;1332;-24
2023/05/16 04:27:00;;;;;;;;;;;;;;;24.71;37.21;100645.50;5074900;28;1398;-27
2023/05/16 04:29:25;;;;;;;;;;;;;;;24.70;36.87;100651.88;5079578;28;987;-24
2023/05/16 04:31:51;;;;;;;;;;;;;;;24.83;36.61;100643.31;5077256;28;1183;-30
2023/05/16 04:34:17;;;;;;;;;;;;;;;24.75;36.81;100632.53;5097628;28;1158;-29
2023/05/16 04:36:43;;;;;;;;;;;;;;;24.67;36.91;100630.72;5082928;28;1988;-28
2023/05/16 04:39:08;;;;;;;;;;;;;;;24.41;38.23;100639.78;5064876;28;1149;-30
2023/05/16 04:41:34;;;;;;;;;;;;;;;24.26;37.88;100632.38;5076707;28;1011;-27
2023/05/16 04:44:03;;;;;;;;;;;;;;;24.58;37.29;100627.19;5084572;28;1407;-28
2023/05/16 04:46:29;;;;;;;;;;;;;;;24.54;37.03;100625.84;5091347;28;1099;-23
2023/05/16 04:48:55;;;;;;;;;;;;;;;24.50;36.93;100633.41;5076787;28;889;-24
2023/05/16 04:51:20;;;;;;;;;;;;;;;24.94;36.36;100632.22;5094311;28;1491;-24
2023/05/16 04:53:46;;;;;;;;;;;;;;;25.01;36.23;100637.75;5096704;28;1178;-30
2023/05/16 04:56:11;;;;;;;;;;;;;;;25.06;35.93;100632.69;5096088;28;1902;-25
2023/05/16 04:58:37;;;;;;;;;;;;;;;25.04;36.16;100633.88;5097129;28;1170;-24
2023/05/16 05:01:03;;;;;;;;;;;;;;;25.14;35.57;100639.91;5081533;28;868;-22
2023/05/16 05:03:28;;;;;;;;;;;;;;;25.00;36.00;100635.22;5093861;28;1218;-25
2023/05/16 05:05:54;;;;;;;;;;;;;;;24.67;36.97;100628.03;5077281;28;1139;-26
2023/05/16 05:08:20;;;;;;;;;;;;;;;24.51;36.75;100626.16;5090242;28;1131;-23
2023/05/16 05:10:45;;;;;;;;;;;;;;;24.43;37.31;100617.09;5084947;28;1198;-24
2023/05/16 05:13:11;;;;;;;;;;;;;;;24.28;37.69;100616.94;5081370;28;963;-24
2023/05/16 05:15:37;;;;;;;;;;;;;;;24.37;37.52;100614.25;5095933;28;1996;-24
2023/05/16 05:18:03;;;;;;;;;;;;;;;24.74;36.46;100617.44;5096003;28;1101;-26
2023/05/16 05:20:28;;;;;;;;;;;;;;;24.68;36.38;100625.16;5096808;28;1205;-25
2023/05/16 05:22:54;;;;;;;;;;;;;;;24.90;36.12;100625.50;5096867;28;1182;-24
2023/05/16 05:25:20;;;;;;;;;;;;;;;25.22;35.66;100624.75;5080060;28;1041;-22
2023/05/16 05:27:45;;;;;;;;;;;;;;;25.34;35.81;100623.34;5094633;28;1132;-24
2023/05/16 05:30:11;;;;;;;;;;;;;;;25.14;35.62;100625.63;5092783;28;1125;-24
2023/05/16 05:32:37;;;;;;;;;;;;;;;25.23;35.81;100629.09;5065359;28;1179;-25
2023/05/16 05:35:02;;;;;;;;;;;;;;;25.19;36.40;100626.75;5075341;28;1304;-24
2023/05/16 05:37:28;;;;;;;;;;;;;;;25.39;35.79;100628.22;5079573;28;1906;-24
2023/05/16 05:39:54;;;;;;;;;;;;;;;25.28;35.39;100635.66;5091729;28;1182;-23
2023/05/16 05:42:20;;;;;;;;;;;;;;;25.24;36.20;100630.81;5086287;28;1321;-26
2023/05/16 05:44:46;;;;;;;;;;;;;;;25.55;34.95;100638.94;5072365;28;1769;-27
2023/05/16 05:47:11;;;;;;;;;;;;;;;25.84;34.20;100635.78;5089336;28;1027;-25
2023/05/16 05:49:37;;;;;;;;;;;;;;;25.89;34.15;100630.72;5075170;28;1175;-24
2023/05/16 05:52:02;;;;;;;;;;;;;;;25.93;34.01;100621.25;5080250;28;1700;-28
2023/05/16 05:54:29;;;;;;;;;;;;;;;26.16;33.53;100612.31;5089244;28;1210;-29
2023/05/16 05:56:55;;;;;;;;;;;;;;;26.41;33.43;100601.38;5076133;28;1910;-33
2023/05/16 05:59:21;;;;;;;;;;;;;;;26.33;34.25;100602.28;5072940;28;1203;-29
2023/05/16 06:01:51;;;;;;;;;;;;;;;26.43;33.62;100598.50;5073162;28;1148;-26
2023/05/16 06:04:17;;;;;;;;;;;;;;;26.36;33.87;100601.09;5071936;28;938;-28
2023/05/16 06:06:43;;;;;;;;;;;;;;;26.39;33.38;100593.47;5074871;28;1168;-24
2023/05/16 06:09:08;;;;;;;;;;;;;;;26.59;33.28;100605.63;5071512;28;1207;-31
2023/05/16 06:11:34;;;;;;;;;;;;;;;26.51;33.47;100599.25;5073600;28;1152;-24
2023/05/16 06:13:59;;;;;;;;;;;;;;;26.50;33.70;100597.59;5073630;28;1271;-25
2023/05/16 06:16:25;;;;;;;;;;;;;;;26.44;33.60;100586.69;5067676;28;1915;-26
2023/05/16 06:18:51;;;;;;;;;;;;;;;26.50;33.44;100592.19;5079755;28;1119;-27
2023/05/16 06:21:16;;;;;;;;;;;;;;;26.65;33.58;100569.81;5076833;28;983;-27
2023/05/16 06:23:42;;;;;;;;;;;;;;;26.48;33.69;100569.13;5074860;28;1035;-33
2023/05/16 06:26:08;;;;;;;;;;;;;;;26.82;32.73;100570.47;5075250;28;1040;-26
2023/05/16 06:28:33;;;;;;;;;;;;;;;26.94;32.70;100570.00;5088033;28;1115;-30
2023/05/16 06:30:59;;;;;;;;;;;;;;;27.04;32.44;100570.59;5076640;28;1003;-26
2023/05/16 06:33:24;;;;;;;;;;;;;;;26.67;33.46;100564.22;5074987;28;1000;-27
2023/05/16 06:35:51;;;;;;;;;;;;;;;26.61;33.10;100558.53;5074697;28;1921;-25
2023/05/16 06:38:17;;;;;;;;;;;;;;;26.64;33.04;100568.94;5074814;28;981;-24
2023/05/16 06:40:42;;;;;;;;;;;;;;;26.77;33.06;100562.94;5075316;28;1254;-27
2023/05/16 06:43:08;;;;;;;;;;;;;;;26.79;33.05;100565.44;5063943;28;1087;-24
2023/05/16 06:45:34;;;;;;;;;;;;;;;26.99;32.55;100565.72;5074529;28;1329;-24
2023/05/16 06:47:59;;;;;;;;;;;;;;;26.70;33.44;100561.16;5071242;28;957;-26
2023/05/16 06:50:25;;;;;;;;;;;;;;;26.73;32.79;100569.72;5074232;28;1013;-28
2023/05/16 06:52:51;;;;;;;;;;;;;;;26.69;33.51;100563.03;5078059;28;1230;-30
2023/05/16 06:55:16;;;;;;;;;;;;;;;26.86;33.00;100577.16;5092094;28;1044;-28
2023/05/16 06:57:42;;;;;;;;;;;;;;;27.02;32.44;100580.75;5060469;28;1906;-24
2023/05/16 07:00:08;;;;;;;;;;;;;;;27.12;32.56;100584.00;5078419;28;1155;-27
2023/05/16 07:02:33;;;;;;;;;;;;;;;27.16;32.68;100587.16;5089649;28;945;-28
2023/05/16 07:04:59;;;;;;;;;;;;;;;27.30;31.79;100596.28;5075865;28;1297;-26
2023/05/16 07:07:24;;;;;;;;;;;;;;;27.12;32.25;100608.31;5074335;28;1077;-30
2023/05/16 07:09:50;;;;;;;;;;;;;;;27.24;31.83;100615.94;5075212;28;1527;-31
2023/05/16 07:12:16;;;;;;;;;;;;;;;27.20;31.72;100615.47;5074695;28;1310;-28
2023/05/16 07:14:42;;;;;;;;;;;;;;;27.32;31.89;100621.22;5078480;28;1177;-29
2023/05/16 07:17:08;;;;;;;;;;;;;;;27.41;31.74;100623.84;5075542;28;1906;-32
2023/05/16 07:19:33;;;;;;;;;;;;;;;27.32;31.93;100623.09;5069012;28;1187;-32
2023/05/16 07:21:59;;;;;;;;;;;;;;;27.03;32.38;100614.81;5060586;28;1298;-27
2023/05/16 07:24:25;;;;;;;;;;;;;;;27.44;31.88;100609.94;5070517;28;1073;-31
2023/05/16 07:26:50;;;;;;;;;;;;;;;27.54;31.84;100607.78;5075160;28;1223;-29
2023/05/16 07:29:16;;;;;;;;;;;;;;;27.49;32.21;100608.34;5069897;28;1163;-26
2023/05/16 07:31:41;;;;;;;;;;;;;;;27.50;32.13;100604.63;5091892;28;1403;-28
2023/05/16 07:34:08;;;;;;;;;;;;;;;27.56;31.88;100600.31;5076844;28;1454;-28
2023/05/16 07:36:33;;;;;;;;;;;;;;;27.77;31.32;100612.22;5073102;28;1973;-26
2023/05/16 07:38:59;;;;;;;;;;;;;;;27.72;31.61;100609.25;5066311;28;1214;-33
2023/05/16 07:41:25;;;;;;;;;;;;;;;27.78;31.28;100610.38;5093032;28;1210;-31
2023/05/16 07:43:50;;;;;;;;;;;;;;;27.75;31.28;100615.13;5078314;28;1119;-28
2023/05/16 07:46:16;;;;;;;;;;;;;;;27.71;31.64;100608.41;5088998;28;1110;-26
2023/05/16 07:48:41;;;;;;;;;;;;;;;28.21;30.68;100623.91;5082447;28;1066;-28
2023/05/16 07:51:07;;;;;;;;;;;;;;;28.20;29.80;100615.97;5076496;28;1052;-28
2023/05/16 07:53:33;;;;;;;;;;;;;;;28.18;30.01;100627.00;5091792;28;1120;-28
2023/05/16 07:55:59;;;;;;;;;;;;;;;27.61;31.17;100629.50;5066581;28;1937;-25
2023/05/16 07:58:24;;;;;;;;;;;;;;;27.97;31.19;100627.81;5086693;28;846;-28
2023/05/16 08:00:50;;;;;;;;;;;;;;;28.05;30.38;100643.09;5095947;28;1094;-27
2023/05/16 08:03:15;;;;;;;;;;;;;;;28.14;30.27;100646.50;5079020;28;1048;-32
2023/05/16 08:05:41;;;;;;;;;;;;;;;28.16;30.23;100650.69;5070065;28;972;-30
2023/05/16 08:08:07;;;;;;;;;;;;;;;28.07;30.47;100651.84;5091821;28;1115;-27
2023/05/16 08:10:33;;;;;;;;;;;;;;;28.24;30.08;100652.44;5087273;28;1163;-31
2023/05/16 08:12:58;;;;;;;;;;;;;;;27.87;30.65;100652.47;5076843;28;1230;-31
2023/05/16 08:15:25;;;;;;;;;;;;;;;27.89;30.67;100655.84;5076458;28;1333;-30
2023/05/16 08:17:50;;;;;;;;;;;;;;;27.78;30.96;100648.22;5097499;28;1909;-31
2023/05/16 08:20:16;;;;;;;;;;;;;;;27.89;30.84;100649.56;5071159;28;1246;-28
2023/05/16 08:22:42;;;;;;;;;;;;;;;27.90;31.14;100645.84;5068710;28;1286;-32
2023/05/16 08:25:07;;;;;;;;;;;;;;;27.78;30.93;100650.91;5070574;28;1353;-31
2023/05/16 08:27:33;;;;;;;;;;;;;;;27.83;30.74;100649.31;5086967;28;987;-30
2023/05/16 08:29:59;;;;;;;;;;;;;;;27.65;31.38;100646.97;5078060;28;1195;-28
2023/05/16 08:32:24;;;;;;;;;;;;;;;27.52;31.77;100655.78;5075198;28;1278;-32
2023/05/16 08:34:50;;;;;;;;;;;;;;;27.46;32.02;100643.03;5084555;28;1217;-31
2023/05/16 08:37:15;;;;;;;;;;;;;;;27.31;31.86;100643.84;5077595;28;1981;-33
2023/05/16 08:39:41;;;;;;;;;;;;;;;25.65;35.11;100640.59;5071152;28;1011;-34
2023/05/16 08:42:07;;;;;;;;;;;;;;;25.73;35.06;100637.00;5086430;28;1363;-30
2023/05/16 08:44:33;;;;;;;;;;;;;;;24.89;36.28;100631.84;5097055;28;1122;-34
2023/05/16 08:46:59;;;;;;;;;;;;;;;25.64;35.66;100620.91;5078830;28;1318;-32
2023/05/16 08:49:25;;;;;;;;;;;;;;;25.91;34.31;100621.41;5074828;28;1103;-33
2023/05/16 08:51:51;;;;;;;;;;;;;;;26.07;34.62;100627.72;5083990;28;1433;-33
2023/05/16 08:54:17;;;;;;;;;;;;;;;25.74;34.52;100622.53;5055050;28;1116;-31
2023/05/16 08:56:43;;;;;;;;;;;;;;;26.19;33.86;100624.63;5068652;28;1918;-28
2023/05/16 08:59:08;;;;;;;;;;;;;;;26.26;33.70;100626.41;5086113;28;1110;-30
2023/05/16 09:01:34;;;;;;;;;;;;;;;26.48;33.51;100629.31;5076012;28;932;-33
2023/05/16 09:03:59;;;;;;;;;;;;;;;26.27;33.99;100625.41;5096222;28;1056;-31
2023/05/16 09:06:28;;;;;;;;;;;;;;;26.41;33.65;100618.41;5068306;28;1548;-30
2023/05/16 09:08:53;;;;;;;;;;;;;;;26.35;33.39;100626.38;5070693;28;1259;-30
2023/05/16 09:11:20;;;;;;;;;;;;;;;26.00;34.20;100627.59;5077116;28;1214;-32
2023/05/16 09:13:47;;;;;;;;;;;;;;;26.19;33.59;100612.00;5075595;28;1227;-30
2023/05/16 09:16:13;;;;;;;;;;;;;;;25.84;34.59;100619.63;5076349;28;1897;-28
2023/05/16 09:18:39;;;;;;;;;;;;;;;26.15;34.02;100613.34;5076271;28;1246;-29
2023/05/16 09:21:06;;;;;;;;;;;;;;;26.23;33.74;100602.50;5080183;28;1180;-31
2023/05/16 09:23:32;;;;;;;;;;;;;;;26.17;33.69;100605.94;5082598;28;1202;-28
2023/05/16 09:25:58;;;;;;;;;;;;;;;26.95;33.04;100599.50;5075436;28;1187;-29
2023/05/16 09:28:24;;;;;;;;;;;;;;;26.63;33.63;100594.28;5064723;28;1523;-28
2023/05/16 09:30:50;;;;;;;;;;;;;;;26.90;33.26;100591.97;5051842;28;1445;-29
2023/05/16 09:33:16;;;;;;;;;;;;;;;27.30;32.42;100590.88;5071384;28;1594;-28
2023/05/16 09:35:42;;;;;;;;;;;;;;;27.34;31.86;100588.63;5057466;28;1963;-28
2023/05/16 09:38:12;;;;;;;;;;;;;;;27.46;32.13;100589.81;5076019;28;1462;-29
2023/05/16 09:40:39;;;;;;;;;;;;;;;27.29;32.67;100585.66;5065012;28;1144;-31
2023/05/16 09:43:05;;;;;;;;;;;;;;;27.62;31.92;100588.78;5071955;28;1586;-28
2023/05/16 09:45:31;;;;;;;;;;;;;;;27.78;31.38;100594.97;5075978;28;952;-31
2023/05/16 09:48:03;;;;;;;;;;;;;;;27.84;31.18;100601.50;5075828;28;1031;-32
2023/05/16 09:50:30;;;;;;;;;;;;;;;27.36;32.53;100600.09;5075766;28;907;-29
2023/05/16 09:52:56;;;;;;;;;;;;;;;27.49;32.12;100602.94;5057627;28;1143;-32
2023/05/16 09:55:22;;;;;;;;;;;;;;;26.67;33.65;100602.00;5056921;28;1064;-27
2023/05/16 09:57:47;;;;;;;;;;;;;;;26.06;34.44;100606.34;5068682;28;1910;-35
2023/05/16 10:00:13;;;;;;;;;;;;;;;25.95;35.09;100603.03;5071009;28;1334;-29
2023/05/16 10:02:38;;;;;;;;;;;;;;;25.90;35.41;100598.19;5057619;28;1613;-34
2023/05/16 10:05:05;;;;;;;;;;;;;;;25.92;35.44;100598.03;5070076;28;1543;-32
2023/05/16 10:07:32;;;;;;;;;;;;;;;25.06;37.10;100599.56;5057989;28;1094;-35
2023/05/16 10:09:58;;;;;;;;;;;;;;;24.84;37.45;100588.47;5083804;28;1127;-32
2023/05/16 10:12:24;;;;;;;;;;;;;;;25.48;36.31;100576.00;5080708;28;1050;-31
2023/05/16 10:14:50;;;;;;;;;;;;;;;25.74;36.04;100577.56;5057138;28;1020;-30
2023/05/16 10:17:16;;;;;;;;;;;;;;;25.28;36.53;100576.44;5075540;28;1969;-34
2023/05/16 10:19:41;;;;;;;;;;;;;;;25.32;36.41;100563.47;5083787;28;1044;-32
2023/05/16 10:22:07;;;;;;;;;;;;;;;25.65;36.00;100571.41;5080184;28;953;-31
2023/05/16 10:24:43;;;;;;;;;;;;;;;25.72;35.86;100562.59;5075770;28;1104;-32
2023/05/16 10:27:08;;;;;;;;;;;;;;;25.23;36.78;100551.03;5078354;28;1079;-34
2023/05/16 10:29:34;;;;;;;;;;;;;;;25.12;37.53;100563.03;5070957;28;1594;-36
2023/05/16 10:31:59;;;;;;;;;;;;;;;25.20;36.74;100549.56;5083193;28;1114;-34
2023/05/16 10:34:25;;;;;;;;;;;;;;;26.01;35.48;100558.34;5054590;28;1260;-28
2023/05/16 10:36:51;;;;;;;;;;;;;;;26.03;35.93;100561.72;5052488;28;1902;-33
2023/05/16 10:39:16;;;;;;;;;;;;;;;25.84;36.26;100549.56;5057675;28;1303;-33
2023/05/16 10:41:42;;;;;;;;;;;;;;;26.32;35.14;100549.34;5075906;28;1543;-28
2023/05/16 10:45:42;;;;;;;;;;;;;;;26.80;34.00;100539.28;5064421;28;1321;-40
2023/05/16 10:48:08;;;;;;;;;;;;;;;26.82;33.77;100537.25;5059876;28;1378;-36
2023/05/16 10:50:38;;;;;;;;;;;;;;;26.85;33.26;100539.56;5056338;28;1596;-36
2023/05/16 10:53:11;;;;;;;;;;;;;;;27.09;33.11;100529.53;5071943;28;1351;-40
2023/05/16 10:55:43;;;;;;;;;;;;;;;27.40;33.16;100531.16;5071745;28;1436;-41
2023/05/16 10:58:08;;;;;;;;;;;;;;;27.67;32.22;100531.44;5077065;28;1118;-39
2023/05/16 11:00:34;;;;;;;;;;;;;;;26.61;32.77;100518.06;5061833;28;948;-39
2023/05/16 11:03:18;;;;;;;;;;;;;;;27.04;33.09;100513.91;5053028;28;1048;-30
2023/05/16 11:05:44;;;;;;;;;;;;;;;26.75;33.33;100527.19;5055733;28;949;-33
2023/05/16 11:08:10;;;;;;;;;;;;;;;26.16;34.48;100513.41;5059498;28;1161;-32
2023/05/16 11:10:35;;;;;;;;;;;;;;;26.75;33.74;100510.16;5062147;28;1174;-30
2023/05/16 11:13:02;;;;;;;;;;;;;;;27.05;32.85;100512.88;5064332;28;1249;-29
2023/05/16 11:15:27;;;;;;;;;;;;;;;26.97;31.72;100503.00;5064465;28;828;-29
2023/05/16 11:18:04;;;;;;;;;;;;;;;26.98;31.81;100503.81;5065269;28;1174;-30
2023/05/16 11:20:30;;;;;;;;;;;;;;;27.13;32.42;100507.38;5057945;28;1432;-32
2023/05/16 11:23:29;;;;;;;;;;;;;;;27.23;32.33;100515.16;5052698;28;1097;-28
2023/05/16 11:25:55;;;;;;;;;;;;;;;26.91;33.17;100514.53;5016895;28;1337;-30
2023/05/16 11:28:21;;;;;;;;;;;;;;;27.21;33.01;100511.00;5052404;28;882;-38
2023/05/16 11:30:51;;;;;;;;;;;;;;;26.77;33.92;100503.56;5070826;28;1142;-38
2023/05/16 11:33:17;;;;;;;;;;;;;;;26.63;34.19;100504.38;5065328;28;1682;-37
2023/05/16 11:35:42;;;;;;;;;;;;;;;26.59;34.17;100497.72;5051855;28;822;-37
2023/05/16 11:38:17;;;;;;;;;;;;;;;26.57;34.55;100495.19;5055239;28;1082;-38
2023/05/16 11:40:43;;;;;;;;;;;;;;;26.59;34.50;100482.34;5070022;28;1432;-38
2023/05/16 11:43:08;;;;;;;;;;;;;;;26.55;34.56;100470.25;5071726;28;1147;-35
2023/05/16 11:45:34;;;;;;;;;;;;;;;26.63;34.34;100470.16;5080906;28;1984;-38
2023/05/16 11:48:03;;;;;;;;;;;;;;;26.65;34.47;100467.28;5085461;28;1494;-37
2023/05/16 11:50:29;;;;;;;;;;;;;;;26.60;34.67;100467.84;5082121;28;1070;-38
2023/05/16 11:52:56;;;;;;;;;;;;;;;26.57;34.59;100460.13;5080334;28;1158;-39
2023/05/16 11:55:26;;;;;;;;;;;;;;;26.55;34.69;100464.88;5068548;28;1155;-36
2023/05/16 11:57:52;;;;;;;;;;;;;;;26.69;34.50;100456.94;5066689;28;1047;-37
2023/05/16 12:00:18;;;;;;;;;;;;;;;26.83;34.36;100456.09;5074820;28;1075;-33
2023/05/16 12:02:44;;;;;;;;;;;;;;;26.94;33.93;100456.66;5060080;28;1123;-39
2023/05/16 12:05:10;;;;;;;;;;;;;;;27.26;33.92;100468.88;5077834;28;1973;-37
2023/05/16 12:07:38;;;;;;;;;;;;;;;27.16;33.83;100464.81;5077220;28;1088;-38
2023/05/16 12:10:07;;;;;;;;;;;;;;;27.23;33.55;100457.63;5073980;28;1091;-35
2023/05/16 12:12:33;;;;;;;;;;;;;;;26.95;34.28;100456.44;5063382;28;1358;-37
2023/05/16 12:14:59;;;;;;;;;;;;;;;26.94;34.35;100451.25;5058659;28;960;-36
2023/05/16 12:17:24;;;;;;;;;;;;;;;26.85;34.56;100461.31;5077759;28;1341;-37
2023/05/16 12:19:50;;;;;;;;;;;;;;;26.82;34.53;100451.72;5057225;28;1158;-37
2023/05/16 12:22:17;;;;;;;;;;;;;;;26.88;34.64;100440.19;5078066;28;1269;-36
2023/05/16 12:24:43;;;;;;;;;;;;;;;27.33;33.57;100433.00;5072995;28;1888;-36
2023/05/16 12:27:08;;;;;;;;;;;;;;;26.97;34.48;100422.03;5058154;28;1305;-37
2023/05/16 12:29:34;;;;;;;;;;;;;;;27.37;33.86;100426.19;5061505;28;1406;-37
2023/05/16 12:31:59;;;;;;;;;;;;;;;27.46;33.24;100429.63;5075404;28;1028;-36
2023/05/16 12:34:28;;;;;;;;;;;;;;;27.06;34.32;100424.63;5052016;28;1234;-38
2023/05/16 12:36:54;;;;;;;;;;;;;;;26.89;34.51;100419.44;5061394;28;1087;-36
2023/05/16 12:39:20;;;;;;;;;;;;;;;26.72;34.85;100411.56;5066376;28;1091;-38
2023/05/16 12:41:45;;;;;;;;;;;;;;;26.82;35.07;100400.47;5074652;28;1162;-35
2023/05/16 12:44:18;;;;;;;;;;;;;;;27.38;33.76;100408.94;5068826;28;1994;-39